NEODyS-2

Near Earth Objects - Dynamic Site
NEODyS ∴ Observatories ∴ Site 691 ∴ Obs & residuals
Contact »
691  ▹ 
OBSERVATIONS AND RESIDUALS

691-Steward Observatory, Kitt Peak-Spacewatch

Detections | Residuals | Detections & Residuals

[1-200] [201-400] [401-600] [601-800] [801-1000] [1001-1200] [1201-1400] [1401-1600] [1601-1800] [1801-2000] [2001-2200] [2201-2400] [2401-2600] [2601-2800] [2801-3000] [3001-3200] [3201-3400] [3401-3600] [3601-3800] [3801-4000] [4001-4200] [4201-4400] [4401-4600] [4601-4800] [4801-5000] [5001-5200] [5201-5400] [5401-5600] [5601-5800] [5801-6000] [6001-6200] [6201-6400] [6401-6600] [6601-6800] [6801-7000] [7001-7200] [7201-7400] [7401-7600] [7601-7800] [7801-8000] [8001-8200] [8201-8400] [8401-8600] [8601-8800] [8801-9000] [9001-9200] [9201-9400] [9401-9600] [9601-9800] [9801-10000] [10001-10200] [10201-10400] [10401-10600] [10601-10800] [10801-11000] [11001-11200] [11201-11400] [11401-11600] [11601-11800] [11801-12000] [12001-12200] [12201-12400] [12401-12600] [12601-12800] [12801-13000] [13001-13200] [13201-13400] [13401-13600] [13601-13800] [13801-14000] [14001-14200] [14201-14400] [14401-14600] [14601-14800] [14801-15000] [15001-15200] [15201-15400] [15401-15600] [15601-15800] [15801-16000] [16001-16200] [16201-16400] [16401-16600] [16601-16800] [16801-17000] [17001-17200] [17201-17400] [17401-17600] [17601-17800] [17801-18000] [18001-18200] [18201-18400] [18401-18600] [18601-18800] [18801-19000] [19001-19200] [19201-19400] [19401-19600] [19601-19800] [19801-20000] [20001-20200] [20201-20400] [20401-20600] [20601-20800] [20801-21000] [21001-21200] [21201-21400] [21401-21600] [21601-21800] [21801-22000] [22001-22200] [22201-22400] [22401-22600] [22601-22800] [22801-23000] [23001-23200] [23201-23400] [23401-23600] [23601-23800] [23801-24000] [24001-24200] [24201-24400] [24401-24600] [24601-24800] [24801-25000] [25001-25200] [25201-25400] [25401-25600] [25601-25800] [25801-26000] [26001-26200] [26201-26400] [26401-26600] [26601-26800] [26801-27000] [27001-27200] [27201-27400] [27401-27600] [27601-27800] [27801-28000] [28001-28200] [28201-28400] [28401-28600] [28601-28800] [28801-29000] [29001-29200] [29201-29400] [29401-29600] [29601-29800] [29801-30000] [30001-30200] [30201-30400] [30401-30600] [30601-30800] [30801-31000] [31001-31200] [31201-31400] [31401-31600] [31601-31800] [31801-32000] [32001-32200] [32201-32400] [32401-32600] [32601-32800] [32801-33000] [33001-33200] [33201-33400] [33401-33600] [33601-33800] [33801-34000] [34001-34200] [34201-34400] [34401-34600] [34601-34800] [34801-35000] [35001-35200] [35201-35400] [35401-35600] [35601-35800] [35801-36000] [36001-36200] [36201-36400] [36401-36600] [36601-36800] [36801-37000] [37001-37200] [37201-37400] [37401-37600] [37601-37800] [37801-38000] [38001-38200] [38201-38400] [38401-38600] [38601-38800] [38801-39000] [39001-39200] [39201-39400] [39401-39600] [39601-39800] [39801-40000] [40001-40200] [40201-40400] [40401-40600] [40601-40800] [40801-41000] [41001-41200] [41201-41400] [41401-41600] [41601-41800] [41801-42000] [42001-42200] [42201-42400] [42401-42600] [42601-42800] [42801-43000] [43001-43200] [43201-43400] [43401-43600] [43601-43800] [43801-44000] [44001-44200] [44201-44400] [44401-44600] [44601-44800] [44801-45000] [45001-45200] [45201-45400] [45401-45600] [45601-45800] [45801-46000] [46001-46200] [46201-46400] [46401-46600] [46601-46800] [46801-47000] [47001-47200] [47201-47400] [47401-47600] [47601-47800] [47801-48000] [48001-48200] [48201-48400] [48401-48600] [48601-48800] [48801-49000] [49001-49200] [49201-49400] [49401-49600] [49601-49800] [49801-50000] [50001-50200] [50201-50400] [50401-50600] [50601-50741]

Designation T Tech N Date Right Ascension Declination Apparent Magnitude Star Catalog Site code χ Used A Used M
yr-mo-day precision hr:min:sec precision rms F bias residual deg min sec precision rms F bias residual mag/col rms residual
2016EZ157 O C H 2016-03-28.18302 1.000E-05 09:06:38.610 1.500E-01 0.500 F 0.078 -0.045 -04° 59' 51.20" 1.000E-01 0.500 F 0.027 -0.787 21.8 V 0.70 0.42 o 691 1.58 Yes Yes
2016EK56 O C m 2016-03-28.19845 1.000E-05 09:09:07.230 1.500E-01 0.500 F 0.091 0.125 +20° 12' 04.10" 1.000E-01 0.500 F 0.237 -0.187 21.5 V 0.70 0.05 o 691 0.47 Yes Yes
2016EK56 O C m 2016-03-28.20186 1.000E-05 09:09:06.540 1.500E-01 0.500 F 0.091 -0.097 +20° 12' 08.30" 1.000E-01 0.500 F 0.237 -0.001 21.7 V 0.70 0.25 o 691 0.20 Yes Yes
2016EK56 O C m 2016-03-28.20527 1.000E-05 09:09:05.840 1.500E-01 0.500 F 0.091 -0.463 +20° 12' 11.60" 1.000E-01 0.500 F 0.237 -0.709 21.5 V 0.70 0.05 o 691 1.71 Yes Yes
2016FA O C m 2016-03-28.20889 1.000E-05 09:51:49.530 1.500E-01 0.500 F 0.065 -0.187 -01° 00' 40.80" 1.000E-01 0.500 F 0.160 -0.528 20.4 V 0.70 0.29 o 691 1.13 Yes Yes
2016FA O C m 2016-03-28.21067 1.000E-05 09:51:49.030 1.500E-01 0.500 F 0.065 0.665 -01° 00' 56.30" 1.000E-01 0.500 F 0.160 -0.380 o 691 1.54 Yes No
2016FA O C m 2016-03-28.21246 1.000E-05 09:51:48.430 1.500E-01 0.500 F 0.065 0.062 -01° 01' 12.40" 1.000E-01 0.500 F 0.160 -0.748 20.6 V 0.70 0.49 o 691 1.52 Yes Yes
2016FT3 O C H 2016-03-28.21702 1.000E-05 10:26:51.940 1.500E-01 0.500 F 0.115 -0.524 -20° 42' 19.60" 1.000E-01 0.500 F -0.090 0.284 20.7 V 0.70 0.20 o 691 1.20 Yes Yes
2016FT3 O C H 2016-03-28.22020 1.000E-05 10:26:51.960 1.500E-01 0.500 F 0.115 -0.110 -20° 42' 12.20" 1.000E-01 0.500 F -0.090 -0.081 20.6 V 0.70 0.10 o 691 0.28 Yes Yes
2016FT3 O C H 2016-03-28.22338 1.000E-05 10:26:51.970 1.500E-01 0.500 F 0.115 0.163 -20° 42' 04.00" 1.000E-01 0.500 F -0.090 0.352 20.5 V 0.70 0.00 o 691 0.79 Yes Yes
2016ER155 O C m 2016-03-28.22737 1.000E-05 10:28:06.310 1.500E-01 0.500 F 0.219 -0.783 -03° 02' 30.70" 1.000E-01 0.500 F 0.088 0.277 20.3 V 0.70 -0.70 o 691 1.69 Yes Yes
2016ER155 O C m 2016-03-28.23055 1.000E-05 10:28:05.910 1.500E-01 0.500 F 0.219 0.576 -03° 02' 46.00" 1.000E-01 0.500 F 0.088 0.911 21.0 V 0.70 0.00 o 691 2.19 Yes Yes
2016ER155 O C m 2016-03-28.23372 1.000E-05 10:28:05.420 1.500E-01 0.500 F 0.219 0.562 -03° 03' 03.10" 1.000E-01 0.500 F 0.088 -0.306 o 691 1.30 Yes No
2016EG56 O C m 2016-03-28.23781 1.000E-05 10:30:34.310 1.500E-01 0.500 F 0.106 0.093 +03° 40' 38.70" 1.000E-01 0.500 F 0.107 -0.239 21.1 V 0.70 -0.11 o 691 0.52 Yes Yes
2016EG56 O C m 2016-03-28.24192 1.000E-05 10:30:34.870 1.500E-01 0.500 F 0.106 0.872 +03° 40' 43.20" 1.000E-01 0.500 F 0.107 0.044 21.3 V 0.70 0.09 o 691 1.78 Yes Yes
2016EG56 O C m 2016-03-28.24602 1.000E-05 10:30:35.320 1.500E-01 0.500 F 0.106 0.021 +03° 40' 47.60" 1.000E-01 0.500 F 0.107 0.238 21.3 V 0.70 0.09 o 691 0.49 Yes Yes
2016EB158 O C m 2016-03-28.25287 1.000E-05 10:33:10.410 1.500E-01 0.500 F 0.098 -0.087 +18° 09' 32.40" 1.000E-01 0.500 F 0.304 -0.425 20.8 V 0.70 -0.22 o 691 0.91 Yes Yes
2016EB158 O C m 2016-03-28.25605 1.000E-05 10:33:09.960 1.500E-01 0.500 F 0.098 0.229 +18° 09' 25.10" 1.000E-01 0.500 F 0.304 -0.542 20.8 V 0.70 -0.22 o 691 1.23 Yes Yes
2016EB158 O C m 2016-03-28.25923 1.000E-05 10:33:09.480 1.500E-01 0.500 F 0.098 0.116 +18° 09' 18.20" 1.000E-01 0.500 F 0.304 -0.256 21.2 V 0.70 0.18 o 691 0.59 Yes Yes
2016EF85 O C m 2016-03-28.26315 1.000E-05 10:34:10.910 1.500E-01 0.500 F 0.097 -0.002 -00° 29' 29.80" 1.000E-01 0.500 F 0.115 -0.355 21.0 V 0.70 -0.18 o 691 0.76 Yes Yes
2016EF85 O C m 2016-03-28.26610 1.000E-05 10:34:10.450 1.500E-01 0.500 F 0.097 -1.289 -00° 29' 48.20" 1.000E-01 0.500 F 0.115 0.021 21.1 V 0.70 -0.08 o 691 2.72 Yes Yes
2016EF85 O C m 2016-03-28.26904 1.000E-05 10:34:10.180 1.500E-01 0.500 F 0.097 0.248 -00° 30' 06.80" 1.000E-01 0.500 F 0.115 0.135 21.4 V 0.70 0.22 o 691 0.60 Yes Yes
2016FF12 O C m 2016-03-28.27321 1.000E-05 11:50:51.040 1.500E-01 0.500 F 0.155 1.085 -02° 27' 43.70" 1.000E-01 0.500 F 0.090 -0.156 o 691 2.22 Yes No
2016FF12 O C m 2016-03-28.27662 1.000E-05 11:50:49.300 1.500E-01 0.500 F 0.155 0.172 -02° 28' 12.20" 1.000E-01 0.500 F 0.090 -1.186 o 691 2.45 Yes No
2016FV6 O C m 2016-03-28.28536 1.000E-05 11:21:28.460 1.500E-01 0.500 F 0.129 -0.649 -08° 58' 48.20" 1.000E-01 0.500 F -0.041 -0.374 o 691 1.56 Yes No
2016FV6 O C m 2016-03-28.28993 1.000E-05 11:21:26.520 1.500E-01 0.500 F 0.129 -0.474 -08° 58' 46.30" 1.000E-01 0.500 F -0.041 0.228 21.2 V 0.70 0.40 o 691 1.06 Yes Yes
2016FV6 O C m 2016-03-28.29449 1.000E-05 11:21:24.430 1.500E-01 0.500 F 0.129 -2.576 -08° 58' 44.90" 1.000E-01 0.500 F -0.041 0.324 20.8 V 0.70 0.00 o 691 5.10 No Yes
2016EC157 O C m 2016-03-28.30738 1.000E-05 12:00:14.160 1.500E-01 0.500 F 0.169 -1.181 +00° 35' 03.60" 1.000E-01 0.500 F 0.252 -0.269 20.5 V 0.70 0.07 o 691 2.55 Yes Yes
2016EC157 O C m 2016-03-28.31056 1.000E-05 12:00:12.860 1.500E-01 0.500 F 0.169 -1.868 +00° 35' 06.40" 1.000E-01 0.500 F 0.252 0.284 20.7 V 0.70 0.27 o 691 3.61 No Yes
2016EC157 O C m 2016-03-28.31374 1.000E-05 12:00:11.680 1.500E-01 0.500 F 0.169 -0.756 +00° 35' 08.50" 1.000E-01 0.500 F 0.252 0.137 20.8 V 0.70 0.37 o 691 1.61 Yes Yes
2016FC O C m 2016-03-28.32170 1.000E-05 12:56:35.450 1.500E-01 0.500 F 0.215 -0.627 -11° 13' 29.30" 1.000E-01 0.500 F 0.048 0.275 21.2 V 0.70 0.18 o 691 1.39 Yes Yes
2016FC O C m 2016-03-28.32835 1.000E-05 12:56:34.130 1.500E-01 0.500 F 0.215 -1.412 -11° 13' 23.50" 1.000E-01 0.500 F 0.048 0.592 21.3 V 0.70 0.28 o 691 3.10 Yes Yes
2016FC O C m 2016-03-28.33500 1.000E-05 12:56:32.790 1.500E-01 0.500 F 0.215 -2.500 -11° 13' 18.30" 1.000E-01 0.500 F 0.048 0.262 21.1 V 0.70 0.08 o 691 4.96 No Yes
2005EW169 O C m 2016-03-28.35970 1.000E-05 12:09:04.500 1.500E-01 0.500 F 0.282 -0.493 -03° 14' 22.00" 1.000E-01 0.500 F 0.106 0.119 20.9 V 0.70 0.15 o 691 1.02 Yes Yes
2005EW169 O C m 2016-03-28.36774 1.000E-05 12:09:03.930 1.500E-01 0.500 F 0.282 0.035 -03° 14' 17.20" 1.000E-01 0.500 F 0.106 0.211 20.9 V 0.70 0.15 o 691 0.43 Yes Yes
2005EW169 O C m 2016-03-28.37578 1.000E-05 12:09:03.310 1.500E-01 0.500 F 0.282 -0.198 -03° 14' 13.30" 1.000E-01 0.500 F 0.106 -0.598 21.0 V 0.70 0.25 o 691 1.26 Yes Yes
2016EV27 O C 2016-03-28.38094 1.000E-05 12:15:53.890 1.500E-01 0.500 F 0.240 -1.457 -04° 32' 11.40" 1.000E-01 0.500 F 0.123 0.700 18.2 V 0.70 -0.26 o 691 3.20 No Yes
2016EV27 O C 2016-03-28.38273 1.000E-05 12:15:54.870 1.500E-01 0.500 F 0.240 -0.288 -04° 32' 04.30" 1.000E-01 0.500 F 0.123 0.093 18.5 V 0.70 0.04 o 691 0.61 Yes Yes
2016EV27 O C 2016-03-28.38451 1.000E-05 12:15:55.780 1.500E-01 0.500 F 0.240 -0.099 -04° 31' 56.50" 1.000E-01 0.500 F 0.123 0.227 18.5 V 0.70 0.04 o 691 0.50 Yes Yes
2016EK158 O C m 2016-03-28.38804 1.000E-05 12:25:44.160 1.500E-01 0.500 F 0.163 -0.829 +04° 58' 34.20" 1.000E-01 0.500 F 0.245 -0.368 20.9 V 0.70 0.49 o 691 1.85 Yes Yes
2016EK158 O C m 2016-03-28.39214 1.000E-05 12:25:43.230 1.500E-01 0.500 F 0.163 -1.202 +04° 58' 30.90" 1.000E-01 0.500 F 0.245 -0.884 o 691 3.04 Yes No
2016EK158 O C m 2016-03-28.39624 1.000E-05 12:25:42.420 1.500E-01 0.500 F 0.163 0.214 +04° 58' 28.40" 1.000E-01 0.500 F 0.245 -0.600 o 691 1.29 Yes No
2016FU6 O C m 2016-03-28.40403 1.000E-05 12:48:59.760 1.500E-01 0.500 F 0.083 0.404 +03° 27' 44.30" 1.000E-01 0.500 F 0.072 2.155 21.1 V 0.70 0.62 o 691 4.24 No Yes
2016FU6 O C m 2016-03-28.40976 1.000E-05 12:48:59.980 1.500E-01 0.500 F 0.083 -0.410 +03° 27' 10.60" 1.000E-01 0.500 F 0.072 -0.871 21.0 V 0.70 0.52 o 691 2.00 Yes Yes
2016FU6 O C m 2016-03-28.41548 1.000E-05 12:49:00.340 1.500E-01 0.500 F 0.083 0.583 +03° 26' 43.20" 1.000E-01 0.500 F 0.072 2.246 20.8 V 0.70 0.31 o 691 4.48 No Yes
2016FV7 O C m 2016-03-28.41987 1.000E-05 12:08:50.450 1.500E-01 0.500 F 0.233 0.092 +13° 19' 35.30" 1.000E-01 0.500 F 0.194 0.083 19.7 V 0.70 0.47 o 691 0.25 Yes Yes
2016FV7 O C m 2016-03-28.42166 1.000E-05 12:08:48.390 1.500E-01 0.500 F 0.233 -0.499 +13° 19' 52.70" 1.000E-01 0.500 F 0.194 -0.160 19.5 V 0.70 0.27 o 691 1.06 Yes Yes
2016FV7 O C m 2016-03-28.42345 1.000E-05 12:08:46.340 1.500E-01 0.500 F 0.233 -0.934 +13° 20' 10.50" 1.000E-01 0.500 F 0.194 -0.009 19.6 V 0.70 0.37 o 691 1.90 Yes Yes
2016FR12 O C m 2016-03-28.43736 1.000E-05 13:00:51.830 1.500E-01 0.500 F 0.379 0.917 -00° 58' 31.80" 1.000E-01 0.500 F 0.295 -0.853 o 691 2.57 Yes No
2016FR12 O C m 2016-03-28.44539 1.000E-05 13:00:48.610 1.500E-01 0.500 F 0.158 0.435 -00° 58' 54.20" 1.000E-01 0.500 F 0.261 -0.706 o 691 1.70 Yes No
1999JV6 O C m 2016-03-31.12988 1.000E-05 07:59:50.180 1.500E-01 0.500 F -0.081 -0.081 +28° 08' 04.30" 1.000E-01 0.500 F 0.221 -0.309 21.5 V 0.70 0.06 o 691 0.64 Yes Yes
1999JV6 O C m 2016-03-31.13514 1.000E-05 07:59:50.700 1.500E-01 0.500 F -0.081 -0.785 +28° 08' 03.10" 1.000E-01 0.500 F 0.221 0.255 21.7 V 0.70 0.26 o 691 1.65 Yes Yes
1999JV6 O C m 2016-03-31.14040 1.000E-05 07:59:51.400 1.500E-01 0.500 F -0.081 0.890 +28° 08' 01.40" 1.000E-01 0.500 F 0.221 0.326 21.3 V 0.70 -0.14 o 691 1.90 Yes Yes
2016FY13 O C m 2016-03-31.15410 1.000E-05 09:53:59.140 1.500E-01 0.500 F 0.113 -0.023 +04° 53' 39.80" 1.000E-01 0.500 F 0.187 -0.059 21.0 V 0.70 -0.04 o 691 0.14 Yes Yes
2016FY13 O C m 2016-03-31.15705 1.000E-05 09:53:59.620 1.500E-01 0.500 F 0.113 -0.076 +04° 53' 41.30" 1.000E-01 0.500 F 0.187 0.247 21.1 V 0.70 0.06 o 691 0.55 Yes Yes
2016FY13 O C m 2016-03-31.15999 1.000E-05 09:54:00.110 1.500E-01 0.500 F 0.113 0.055 +04° 53' 42.40" 1.000E-01 0.500 F 0.187 0.160 21.1 V 0.70 0.06 o 691 0.37 Yes Yes
2016FV7 O C m 2016-03-31.19527 1.000E-05 10:42:45.540 1.500E-01 0.500 F 0.236 -2.845 +24° 18' 42.40" 1.000E-01 0.500 F 0.317 0.738 19.1 V 0.70 0.24 o 691 5.66 No Yes
2016FV7 O C m 2016-03-31.19734 1.000E-05 10:42:39.220 1.500E-01 0.500 F 0.236 -3.077 +24° 19' 21.10" 1.000E-01 0.500 F 0.317 0.865 19.2 V 0.70 0.34 o 691 6.15 No Yes
2016FV7 O C m 2016-03-31.19942 1.000E-05 10:42:32.910 1.500E-01 0.500 F 0.236 -2.683 +24° 19' 59.80" 1.000E-01 0.500 F 0.317 0.805 19.1 V 0.70 0.24 o 691 5.39 No Yes
2007VZ137 O C m 2016-03-31.20349 1.000E-05 10:41:52.260 1.500E-01 0.500 F 0.179 -1.362 -05° 18' 47.50" 1.000E-01 0.500 F 0.111 -0.006 21.3 V 0.70 0.12 o 691 2.75 Yes Yes
2007VZ137 O C m 2016-03-31.20736 1.000E-05 10:41:51.570 1.500E-01 0.500 F 0.179 -0.237 -05° 18' 42.70" 1.000E-01 0.500 F 0.111 -0.257 21.5 V 0.70 0.32 o 691 0.71 Yes Yes
2007VZ137 O C m 2016-03-31.21129 1.000E-05 10:41:50.820 1.500E-01 0.500 F 0.179 0.172 -05° 18' 38.20" 1.000E-01 0.500 F 0.111 -0.889 o 691 1.83 Yes No
2015TY178 O C m 2016-03-31.24633 1.000E-05 11:11:55.250 1.500E-01 0.500 F 0.101 0.464 +05° 49' 04.70" 1.000E-01 0.500 F 0.206 -0.213 21.6 V 0.70 0.16 o 691 1.02 Yes Yes
2015TY178 O C m 2016-03-31.25090 1.000E-05 11:11:55.380 1.500E-01 0.500 F 0.101 -0.480 +05° 49' 07.70" 1.000E-01 0.500 F 0.206 -0.611 21.6 V 0.70 0.16 o 691 1.57 Yes Yes
2015TY178 O C m 2016-03-31.25546 1.000E-05 11:11:55.680 1.500E-01 0.500 F 0.101 1.120 +05° 49' 10.90" 1.000E-01 0.500 F 0.206 -0.798 21.5 V 0.70 0.06 o 691 2.76 Yes Yes
2016FU13 O C m 2016-03-31.26028 1.000E-05 11:16:42.360 1.500E-01 0.500 F 0.104 0.156 -17° 48' 22.50" 1.000E-01 0.500 F -0.058 0.213 20.7 V 0.70 0.27 o 691 0.53 Yes Yes
2016FU13 O C m 2016-03-31.26322 1.000E-05 11:16:42.510 1.500E-01 0.500 F 0.104 -0.289 -17° 48' 13.40" 1.000E-01 0.500 F -0.058 0.145 20.8 V 0.70 0.37 o 691 0.65 Yes Yes
2016FU13 O C m 2016-03-31.26617 1.000E-05 11:16:42.710 1.500E-01 0.500 F 0.104 -0.030 -17° 48' 03.90" 1.000E-01 0.500 F -0.058 0.441 20.7 V 0.70 0.27 o 691 0.89 Yes Yes
2016FV13 O C m 2016-03-31.27034 1.000E-05 11:21:00.590 1.500E-01 0.500 F 0.346 -0.495 -13° 55' 32.70" 1.000E-01 0.500 F -0.057 -0.731 21.6 V 0.70 0.38 o 691 1.77 Yes Yes
2016FV13 O C m 2016-03-31.27491 1.000E-05 11:20:59.940 1.500E-01 0.500 F 0.346 0.018 -13° 55' 31.80" 1.000E-01 0.500 F -0.057 -0.378 21.4 V 0.70 0.18 o 691 0.76 Yes Yes
2016FV13 O C m 2016-03-31.27947 1.000E-05 11:20:59.220 1.500E-01 0.500 F 0.346 -0.512 -13° 55' 30.60" 1.000E-01 0.500 F -0.057 0.253 21.2 V 0.70 -0.02 o 691 1.14 Yes Yes
2015OL35 O C H 2016-03-31.30018 1.000E-05 11:38:36.600 1.500E-01 0.500 F 0.073 -0.083 +09° 17' 16.90" 1.000E-01 0.500 F 0.147 0.212 20.5 V 0.70 0.27 o 691 0.46 Yes Yes
2015OL35 O C H 2016-03-31.30429 1.000E-05 11:38:36.350 1.500E-01 0.500 F 0.073 -0.168 +09° 17' 18.00" 1.000E-01 0.500 F 0.147 0.079 20.6 V 0.70 0.37 o 691 0.37 Yes Yes
2015OL35 O C H 2016-03-31.30839 1.000E-05 11:38:36.100 1.500E-01 0.500 F 0.073 -0.265 +09° 17' 19.40" 1.000E-01 0.500 F 0.147 0.250 20.5 V 0.70 0.27 o 691 0.73 Yes Yes
2016FA13 O C m 2016-03-31.32658 1.000E-05 12:10:01.320 1.500E-01 0.500 F 0.290 -1.108 -20° 46' 08.20" 1.000E-01 0.500 F -0.118 0.708 21.5 V 0.70 0.02 o 691 2.66 Yes Yes
2016FA13 O C m 2016-03-31.33114 1.000E-05 12:10:00.130 1.500E-01 0.500 F 0.290 -2.602 -20° 46' 16.90" 1.000E-01 0.500 F -0.118 -0.255 21.4 V 0.70 -0.08 o 691 5.14 No Yes
2016FB13 O C 2016-03-31.33998 1.000E-05 12:17:12.430 1.500E-01 0.500 F 0.278 -0.443 -06° 52' 48.00" 1.000E-01 0.500 F 0.027 -0.237 19.4 V 0.70 0.02 o 691 1.02 Yes Yes
2016FB13 O C 2016-03-31.34246 1.000E-05 12:17:12.740 1.500E-01 0.500 F 0.278 -0.418 -06° 53' 07.10" 1.000E-01 0.500 F 0.027 -0.320 19.2 V 0.70 -0.17 o 691 1.08 Yes Yes
2016FB13 O C 2016-03-31.34495 1.000E-05 12:17:13.070 1.500E-01 0.500 F 0.278 -0.140 -06° 53' 26.40" 1.000E-01 0.500 F 0.027 -0.501 19.3 V 0.70 -0.07 o 691 1.09 Yes Yes
2016EE85 O C m 2016-03-31.36219 1.000E-05 13:11:15.230 1.500E-01 0.500 F 0.113 0.070 -13° 29' 50.30" 1.000E-01 0.500 F 0.140 -0.201 21.1 V 0.70 0.41 o 691 0.46 Yes Yes
2016EE85 O C m 2016-03-31.36537 1.000E-05 13:11:14.070 1.500E-01 0.500 F 0.113 -1.896 -13° 29' 53.20" 1.000E-01 0.500 F 0.140 -0.163 21.0 V 0.70 0.31 o 691 3.50 No Yes
2016EE85 O C m 2016-03-31.36855 1.000E-05 13:11:13.110 1.500E-01 0.500 F 0.113 -0.946 -13° 29' 56.90" 1.000E-01 0.500 F 0.140 -0.927 20.6 V 0.70 -0.09 o 691 2.88 Yes Yes
2010DE O C 2016-03-31.37223 1.000E-05 13:39:22.730 1.500E-01 0.500 F 0.306 -0.400 +06° 59' 04.10" 1.000E-01 0.500 F 0.108 -0.036 19.5 V 0.70 0.08 o 691 0.81 Yes Yes
2016FF13 O C 2016-03-31.37223 1.000E-05 13:37:30.080 1.500E-01 0.500 F 0.306 0.149 +07° 18' 53.40" 1.000E-01 0.500 F 0.108 0.026 20.2 V 0.70 -0.03 o 691 0.31 Yes Yes
2010DE O C 2016-03-31.37472 1.000E-05 13:39:22.560 1.500E-01 0.500 F 0.306 -0.525 +06° 59' 07.50" 1.000E-01 0.500 F 0.108 -0.039 19.5 V 0.70 0.08 o 691 1.05 Yes Yes
2016FF13 O C 2016-03-31.37472 1.000E-05 13:37:30.850 1.500E-01 0.500 F 0.306 -0.060 +07° 18' 57.50" 1.000E-01 0.500 F 0.108 0.077 20.2 V 0.70 -0.03 o 691 0.20 Yes Yes
2010DE O C 2016-03-31.37720 1.000E-05 13:39:22.400 1.500E-01 0.500 F 0.306 -0.510 +06° 59' 10.90" 1.000E-01 0.500 F 0.108 -0.029 19.5 V 0.70 0.08 o 691 1.02 Yes Yes
2016FF13 O C 2016-03-31.37720 1.000E-05 13:37:31.620 1.500E-01 0.500 F 0.306 -0.227 +07° 19' 01.60" 1.000E-01 0.500 F 0.108 0.146 20.3 V 0.70 0.07 o 691 0.54 Yes Yes
2016FF1 O C 2016-03-31.38015 1.000E-05 14:32:24.890 1.500E-01 0.500 F 0.142 0.009 -03° 32' 10.80" 1.000E-01 0.500 F 0.098 -0.088 19.9 V 0.70 -0.24 o 691 0.18 Yes Yes
2016FF1 O C 2016-03-31.38194 1.000E-05 14:32:25.460 1.500E-01 0.500 F 0.142 0.082 -03° 31' 58.30" 1.000E-01 0.500 F 0.098 0.294 20.0 V 0.70 -0.14 o 691 0.62 Yes Yes
2016FF1 O C 2016-03-31.38373 1.000E-05 14:32:26.030 1.500E-01 0.500 F 0.142 0.155 -03° 31' 46.20" 1.000E-01 0.500 F 0.098 0.276 20.2 V 0.70 0.06 o 691 0.64 Yes Yes
2016FZ2 O C m 2016-03-31.38863 1.000E-05 14:15:38.780 1.500E-01 0.500 F 0.335 -0.160 -26° 09' 41.60" 1.000E-01 0.500 F 0.349 0.559 20.6 V 0.70 0.55 o 691 1.33 Yes Yes
2016FZ2 O C m 2016-03-31.39088 1.000E-05 14:15:39.060 1.500E-01 0.500 F 0.335 -0.329 -26° 10' 05.80" 1.000E-01 0.500 F 0.349 -0.595 20.2 V 0.70 0.15 o 691 1.55 Yes Yes
2016EP85 O C H 2016-03-31.39748 1.000E-05 14:35:23.980 1.500E-01 0.500 F 0.255 0.070 -09° 28' 29.90" 1.000E-01 0.500 F 0.185 -0.348 o 691 0.71 Yes No
2016EP85 O C H 2016-03-31.40349 1.000E-05 14:35:24.110 1.500E-01 0.500 F 0.255 -0.663 -09° 28' 31.70" 1.000E-01 0.500 F 0.185 -0.433 21.7 V 0.70 0.45 o 691 1.60 Yes Yes
2016EP85 O C H 2016-03-31.40950 1.000E-05 14:35:24.390 1.500E-01 0.500 F 0.255 0.824 -09° 28' 33.50" 1.000E-01 0.500 F 0.185 -0.524 21.2 V 0.70 -0.05 o 691 1.97 Yes Yes
2016FY3 O C H 2016-03-31.41528 1.000E-05 14:46:54.830 1.500E-01 0.500 F 0.146 -0.380 +22° 45' 13.60" 1.000E-01 0.500 F 0.217 -0.258 20.7 V 0.70 0.21 o 691 0.92 Yes Yes
2016FY3 O C H 2016-03-31.42037 1.000E-05 14:46:55.070 1.500E-01 0.500 F 0.146 -0.063 +22° 45' 14.60" 1.000E-01 0.500 F 0.217 0.053 20.6 V 0.70 0.11 o 691 0.17 Yes Yes
2016FY3 O C H 2016-03-31.42545 1.000E-05 14:46:55.290 1.500E-01 0.500 F 0.146 -0.020 +22° 45' 15.10" 1.000E-01 0.500 F 0.217 -0.124 20.6 V 0.70 0.11 o 691 0.25 Yes Yes
2016EN84 O C m 2016-03-31.43599 1.000E-05 17:02:53.880 1.500E-01 0.500 F -0.019 -1.039 -06° 18' 33.70" 1.000E-01 0.500 F 0.192 0.283 20.8 V 0.70 0.35 o 691 2.25 Yes Yes
2016EN84 O C m 2016-03-31.43916 1.000E-05 17:02:54.770 1.500E-01 0.500 F -0.019 -0.299 -06° 18' 38.80" 1.000E-01 0.500 F 0.192 -0.443 20.7 V 0.70 0.25 o 691 1.09 Yes Yes
2016EN84 O C m 2016-03-31.44234 1.000E-05 17:02:55.700 1.500E-01 0.500 F -0.019 1.000 -06° 18' 42.00" 1.000E-01 0.500 F 0.192 0.743 20.5 V 0.70 0.05 o 691 2.56 Yes Yes
2016EP86 O C m 2016-03-31.46146 1.000E-05 15:14:21.670 1.500E-01 0.500 F 0.024 -0.134 -07° 34' 30.50" 1.000E-01 0.500 F 0.278 -0.128 20.6 V 0.70 0.20 o 691 0.37 Yes Yes
2016EP86 O C m 2016-03-31.46534 1.000E-05 15:14:22.240 1.500E-01 0.500 F 0.024 0.039 -07° 34' 28.60" 1.000E-01 0.500 F 0.278 -0.166 20.6 V 0.70 0.20 o 691 0.34 Yes Yes
2016EP86 O C m 2016-03-31.46921 1.000E-05 15:14:22.800 1.500E-01 0.500 F 0.024 0.080 -07° 34' 26.70" 1.000E-01 0.500 F 0.278 -0.202 20.6 V 0.70 0.20 o 691 0.44 Yes Yes
2015VC2 O C m 2016-03-31.47889 1.000E-05 14:31:22.080 1.500E-01 0.500 F 0.186 -1.796 -12° 22' 52.10" 1.000E-01 0.500 F 0.065 0.931 21.4 V 0.70 0.06 o 691 4.02 No Yes
2015VC2 O C m 2016-03-31.48414 1.000E-05 14:31:21.070 1.500E-01 0.500 F 0.186 -0.766 -12° 22' 40.90" 1.000E-01 0.500 F 0.065 0.278 21.4 V 0.70 0.06 o 691 1.64 Yes Yes
2015VC2 O C m 2016-03-31.48940 1.000E-05 14:31:20.040 1.500E-01 0.500 F 0.186 -0.130 -12° 22' 29.40" 1.000E-01 0.500 F 0.065 -0.137 o 691 0.38 Yes No
2008TZ3 O C 2016-03-31.49439 1.000E-05 14:24:19.770 1.500E-01 0.500 F -0.019 -0.037 +12° 41' 42.40" 1.000E-01 0.500 F 0.224 -0.091 18.7 V 0.70 0.02 o 691 0.20 Yes Yes
2000EF104 O C 2016-03-31.49439 1.000E-05 14:26:42.080 1.500E-01 0.500 F -0.019 -0.348 +12° 59' 03.00" 1.000E-01 0.500 F 0.224 -0.097 19.2 V 0.70 0.16 o 691 0.73 Yes Yes
2008TZ3 O C 2016-03-31.49739 1.000E-05 14:24:19.980 1.500E-01 0.500 F -0.019 0.004 +12° 41' 42.00" 1.000E-01 0.500 F 0.224 -0.104 18.7 V 0.70 0.02 o 691 0.21 Yes Yes
2000EF104 O C 2016-03-31.49739 1.000E-05 14:26:41.520 1.500E-01 0.500 F -0.019 -0.457 +12° 59' 04.00" 1.000E-01 0.500 F 0.224 -0.210 19.2 V 0.70 0.16 o 691 1.01 Yes Yes
2008TZ3 O C 2016-03-31.50039 1.000E-05 14:24:20.180 1.500E-01 0.500 F -0.019 -0.109 +12° 41' 41.70" 1.000E-01 0.500 F 0.224 -0.015 18.7 V 0.70 0.02 o 691 0.22 Yes Yes
2000EF104 O C 2016-03-31.50039 1.000E-05 14:26:40.960 1.500E-01 0.500 F -0.019 -0.568 +12° 59' 05.30" 1.000E-01 0.500 F 0.224 -0.022 19.2 V 0.70 0.16 o 691 1.14 Yes Yes
2016EE157 O C 2016-03-31.50328 1.000E-05 14:06:11.800 1.500E-01 0.500 F 0.243 1.145 +22° 44' 45.70" 1.000E-01 0.500 F 0.292 1.461 19.6 V 0.70 -0.41 o 691 3.69 No Yes
2016EE157 O C 2016-03-31.50554 1.000E-05 14:06:11.670 1.500E-01 0.500 F 0.243 -0.173 +22° 44' 57.60" 1.000E-01 0.500 F 0.292 0.260 20.0 V 0.70 -0.01 o 691 0.63 Yes Yes
2016EE157 O C 2016-03-31.50779 1.000E-05 14:06:11.610 1.500E-01 0.500 F 0.243 -0.528 +22° 45' 10.90" 1.000E-01 0.500 F 0.292 0.516 20.1 V 0.70 0.09 o 691 1.49 Yes Yes
2016FC15 O C H 2016-04-01.15864 1.000E-05 09:06:37.620 1.500E-01 0.500 F 0.077 0.661 -03° 54' 55.40" 1.000E-01 0.500 F 0.038 -0.136 o 691 1.36 Yes No
2016FC15 O C H 2016-04-01.16279 1.000E-05 09:06:38.510 1.500E-01 0.500 F 0.077 -0.177 -03° 54' 53.90" 1.000E-01 0.500 F 0.038 -1.025 o 691 2.09 Yes No
2016FC15 O C H 2016-04-01.16695 1.000E-05 09:06:39.530 1.500E-01 0.500 F 0.077 0.899 -03° 54' 51.40" 1.000E-01 0.500 F 0.038 -0.920 o 691 2.59 Yes No
2014EK24 O C H 2016-04-01.20687 1.000E-05 08:50:26.780 1.500E-01 0.500 F 0.091 -0.576 -04° 44' 49.50" 1.000E-01 0.500 F 0.040 0.356 20.7 V 0.70 0.13 o 691 1.36 Yes Yes
2014EK24 O C H 2016-04-01.21565 1.000E-05 08:50:27.140 1.500E-01 0.500 F 0.091 -0.247 -04° 45' 00.90" 1.000E-01 0.500 F 0.040 -0.157 20.5 V 0.70 -0.07 o 691 0.59 Yes Yes
2007VZ137 O C H 2016-04-01.22753 1.000E-05 10:38:36.590 1.500E-01 0.500 F 0.191 -1.170 -04° 56' 04.40" 1.000E-01 0.500 F 0.120 1.804 21.9 V 0.70 0.73 o 691 4.25 No Yes
2007VZ137 O C H 2016-04-01.23215 1.000E-05 10:38:35.710 1.500E-01 0.500 F 0.191 -0.489 -04° 55' 59.80" 1.000E-01 0.500 F 0.120 0.159 21.7 V 0.70 0.53 o 691 1.04 Yes Yes
2007VZ137 O C H 2016-04-01.23677 1.000E-05 10:38:34.640 1.500E-01 0.500 F 0.191 -2.647 -04° 55' 52.60" 1.000E-01 0.500 F 0.120 1.112 21.6 V 0.70 0.43 o 691 5.68 No Yes
2016FV13 O C H 2016-04-01.26609 1.000E-05 11:19:09.430 1.500E-01 0.500 F 0.346 -0.662 -13° 53' 22.30" 1.000E-01 0.500 F -0.057 -0.148 21.1 V 0.70 0.07 o 691 1.36 Yes Yes
2016FV13 O C H 2016-04-01.27048 1.000E-05 11:19:08.670 1.500E-01 0.500 F 0.346 -0.638 -13° 53' 21.40" 1.000E-01 0.500 F -0.057 -0.013 21.2 V 0.70 0.17 o 691 1.28 Yes Yes
2016FV13 O C H 2016-04-01.27486 1.000E-05 11:19:07.910 1.500E-01 0.500 F 0.346 -0.640 -13° 53' 20.80" 1.000E-01 0.500 F -0.057 -0.200 21.3 V 0.70 0.27 o 691 1.34 Yes Yes
2016FW14 O C H 2016-04-01.27930 1.000E-05 11:40:52.240 1.500E-01 0.500 F 0.131 0.062 -20° 34' 35.90" 1.000E-01 0.500 F -0.142 0.215 21.3 V 0.70 0.28 o 691 0.45 Yes Yes
2016FW14 O C H 2016-04-01.28369 1.000E-05 11:40:51.370 1.500E-01 0.500 F 0.131 -0.720 -20° 34' 38.10" 1.000E-01 0.500 F -0.142 -0.496 21.2 V 0.70 0.18 o 691 1.77 Yes Yes
2016FW14 O C H 2016-04-01.28808 1.000E-05 11:40:50.560 1.500E-01 0.500 F 0.131 -0.661 -20° 34' 38.70" 1.000E-01 0.500 F -0.142 0.388 20.8 V 0.70 -0.22 o 691 1.54 Yes Yes
2016FJ39 O C H 2016-04-01.43697 1.000E-05 15:11:42.350 1.500E-01 0.500 F 0.021 0.086 +08° 09' 51.50" 1.000E-01 0.500 F 0.086 -0.128 21.3 V 0.70 0.00 o 691 0.31 Yes Yes
2016FJ39 O C H 2016-04-01.44136 1.000E-05 15:11:42.970 1.500E-01 0.500 F 0.021 0.618 +08° 09' 52.50" 1.000E-01 0.500 F 0.086 -0.505 21.1 V 0.70 -0.20 o 691 1.61 Yes Yes
2016FJ39 O C H 2016-04-01.44574 1.000E-05 15:11:43.510 1.500E-01 0.500 F 0.021 -0.021 +08° 09' 54.40" 1.000E-01 0.500 F 0.086 0.025 21.3 V 0.70 0.00 o 691 0.07 Yes Yes
2016FF15 O C H 2016-04-01.49001 1.000E-05 15:15:44.590 1.500E-01 0.500 F 0.121 -0.660 -04° 44' 58.90" 1.000E-01 0.500 F 0.176 0.177 21.1 V 0.70 -0.31 o 691 1.37 Yes Yes
2016FF15 O C H 2016-04-01.49463 1.000E-05 15:15:44.080 1.500E-01 0.500 F 0.121 -0.062 -04° 44' 57.70" 1.000E-01 0.500 F 0.176 -0.373 21.1 V 0.70 -0.31 o 691 0.76 Yes Yes
2016FF15 O C H 2016-04-01.49925 1.000E-05 15:15:43.560 1.500E-01 0.500 F 0.121 0.383 -04° 44' 55.80" 1.000E-01 0.500 F 0.176 -0.224 21.1 V 0.70 -0.31 o 691 0.89 Yes Yes
1997ET30 O C 2016-04-02.31554 1.000E-05 14:05:45.120 1.500E-01 0.500 F 0.375 -0.172 -12° 03' 48.30" 1.000E-01 0.500 F 0.102 -0.071 18.1 V 0.70 0.18 o 691 0.37 Yes Yes
2004EC O C 2016-04-02.32485 1.000E-05 14:11:34.020 1.500E-01 0.500 F 0.271 -0.570 -13° 02' 20.50" 1.000E-01 0.500 F 0.086 0.565 20.7 V 0.70 -0.06 o 691 1.61 Yes Yes
1997ET30 O C 2016-04-02.33415 1.000E-05 14:05:44.270 1.500E-01 0.500 F 0.375 -0.275 -12° 03' 53.60" 1.000E-01 0.500 F 0.102 -0.027 18.0 V 0.70 0.08 o 691 0.55 Yes Yes
2004EC O C 2016-04-02.34344 1.000E-05 14:11:32.620 1.500E-01 0.500 F 0.271 0.152 -13° 02' 16.70" 1.000E-01 0.500 F 0.086 0.494 20.7 V 0.70 -0.06 o 691 1.03 Yes Yes
1997ET30 O C 2016-04-02.35274 1.000E-05 14:05:43.410 1.500E-01 0.500 F 0.375 -0.491 -12° 03' 58.70" 1.000E-01 0.500 F 0.102 0.180 17.9 V 0.70 -0.02 o 691 1.05 Yes Yes
2004EC O C 2016-04-02.36204 1.000E-05 14:11:31.110 1.500E-01 0.500 F 0.271 -0.712 -13° 02' 13.10" 1.000E-01 0.500 F 0.086 0.210 20.9 V 0.70 0.14 o 691 1.48 Yes Yes
2016FF14 O C 2016-04-02.37911 1.000E-05 13:24:24.530 1.500E-01 0.500 F 0.314 -0.614 -09° 38' 09.50" 1.000E-01 0.500 F 0.006 -0.140 19.9 V 0.70 0.02 o 691 1.28 Yes Yes
2016FF14 O C 2016-04-02.39773 1.000E-05 13:24:32.540 1.500E-01 0.500 F 0.314 -0.151 -09° 40' 09.30" 1.000E-01 0.500 F 0.006 -0.242 20.0 V 0.70 0.11 o 691 0.58 Yes Yes
2016FF14 O C 2016-04-02.41633 1.000E-05 13:24:40.520 1.500E-01 0.500 F 0.314 -0.496 -09° 42' 06.80" 1.000E-01 0.500 F 0.006 0.243 20.0 V 0.70 0.10 o 691 1.13 Yes Yes
2016FC15 O C H 2016-04-03.14190 1.000E-05 09:14:17.260 1.500E-01 0.500 F 0.142 -0.805 -03° 36' 41.50" 1.000E-01 0.500 F 0.094 -0.750 20.7 V 0.70 -0.30 o 691 2.22 Yes Yes
2016FC15 O C H 2016-04-03.14606 1.000E-05 09:14:18.190 1.500E-01 0.500 F 0.142 -0.385 -03° 36' 39.60" 1.000E-01 0.500 F 0.094 -1.041 20.8 V 0.70 -0.20 o 691 2.23 Yes Yes
2016GQ2 O C H 2016-04-03.15021 1.000E-05 09:22:33.730 1.500E-01 0.500 F 0.015 0.521 -07° 09' 08.00" 1.000E-01 0.500 F 0.089 1.752 22.0 V 0.70 0.30 o 691 3.59 No Yes
2016GQ2 O C H 2016-04-03.15478 1.000E-05 09:22:34.220 1.500E-01 0.500 F 0.015 0.338 -07° 09' 01.30" 1.000E-01 0.500 F 0.089 1.207 21.4 V 0.70 -0.30 o 691 2.55 Yes Yes
2016GQ2 O C H 2016-04-03.15935 1.000E-05 09:22:34.730 1.500E-01 0.500 F 0.015 0.453 -07° 08' 55.00" 1.000E-01 0.500 F 0.089 0.263 21.8 V 0.70 0.10 o 691 1.07 Yes Yes
1998SH2 O C H 2016-04-03.16426 1.000E-05 10:32:54.340 1.500E-01 0.500 F 0.232 -0.425 +09° 44' 29.50" 1.000E-01 0.500 F 0.266 -0.912 o 691 2.02 Yes No
1998SH2 O C H 2016-04-03.16866 1.000E-05 10:32:53.680 1.500E-01 0.500 F 0.232 0.859 +09° 44' 32.20" 1.000E-01 0.500 F 0.266 -1.227 o 691 3.01 Yes No
1998SH2 O C H 2016-04-03.17305 1.000E-05 10:32:53.020 1.500E-01 0.500 F 0.232 2.122 +09° 44' 35.30" 1.000E-01 0.500 F 0.266 -1.133 o 691 4.79 No No
2016GT O C H 2016-04-03.18952 1.000E-05 11:53:26.430 1.500E-01 0.500 F 0.236 -0.307 -05° 31' 13.50" 1.000E-01 0.500 F 0.295 -0.390 20.6 V 0.70 -0.31 o 691 0.99 Yes Yes
2016GT O C H 2016-04-03.19275 1.000E-05 11:53:27.750 1.500E-01 0.500 F 0.236 0.297 -05° 31' 19.60" 1.000E-01 0.500 F 0.295 -0.048 20.7 V 0.70 -0.21 o 691 0.59 Yes Yes
2016GT O C H 2016-04-03.19599 1.000E-05 11:53:28.970 1.500E-01 0.500 F 0.236 -0.620 -05° 31' 25.90" 1.000E-01 0.500 F 0.295 0.106 20.5 V 0.70 -0.41 o 691 1.32 Yes Yes
2016CB30 O C 2016-04-03.21319 1.000E-05 12:07:38.240 1.500E-01 0.500 F 0.224 -0.348 -05° 34' 52.30" 1.000E-01 0.500 F 0.043 0.330 19.2 V 0.70 -0.08 o 691 0.98 Yes Yes
2016CB30 O C 2016-04-03.21781 1.000E-05 12:07:39.600 1.500E-01 0.500 F 0.224 -0.116 -05° 35' 12.60" 1.000E-01 0.500 F 0.043 -0.096 19.4 V 0.70 0.12 o 691 0.31 Yes Yes
2016CB30 O C 2016-04-03.22242 1.000E-05 12:07:40.940 1.500E-01 0.500 F 0.224 -0.112 -05° 35' 32.40" 1.000E-01 0.500 F 0.043 -0.074 19.3 V 0.70 0.02 o 691 0.27 Yes Yes
2016GZ O C H 2016-04-03.28365 1.000E-05 12:58:19.430 1.500E-01 0.500 F 0.271 0.351 -05° 26' 13.80" 1.000E-01 0.500 F 0.185 -0.374 21.7 V 0.70 -0.06 o 691 1.03 Yes Yes
2016GZ O C H 2016-04-03.28945 1.000E-05 12:58:20.330 1.500E-01 0.500 F 0.271 1.858 -05° 26' 10.20" 1.000E-01 0.500 F 0.185 0.809 22.0 V 0.70 0.24 o 691 4.03 No Yes
2016GZ O C H 2016-04-03.29523 1.000E-05 12:58:21.140 1.500E-01 0.500 F 0.271 2.069 -05° 26' 06.70" 1.000E-01 0.500 F 0.185 1.897 21.9 V 0.70 0.14 o 691 5.58 No Yes
2016GD1 O C H 2016-04-03.31309 1.000E-05 13:25:33.800 1.500E-01 0.500 F 0.303 -0.902 -09° 20' 21.30" 1.000E-01 0.500 F 0.009 0.810 20.5 V 0.70 -0.54 o 691 2.44 Yes Yes
2016GD1 O C H 2016-04-03.31748 1.000E-05 13:25:33.890 1.500E-01 0.500 F 0.303 0.387 -09° 20' 29.50" 1.000E-01 0.500 F 0.009 -0.236 21.1 V 0.70 0.06 o 691 0.91 Yes Yes
2016GD1 O C H 2016-04-03.32187 1.000E-05 13:25:33.900 1.500E-01 0.500 F 0.303 0.495 -09° 20' 36.60" 1.000E-01 0.500 F 0.009 -0.185 20.9 V 0.70 -0.14 o 691 1.07 Yes Yes
2016GE2 O C H 2016-04-03.33939 1.000E-05 14:03:50.250 1.500E-01 0.500 F 0.089 0.508 -18° 47' 16.50" 1.000E-01 0.500 F 0.077 -0.867 o 691 2.02 Yes No
2016GE2 O C H 2016-04-03.34378 1.000E-05 14:03:50.730 1.500E-01 0.500 F 0.089 0.268 -18° 47' 13.60" 1.000E-01 0.500 F 0.077 -0.392 o 691 0.96 Yes No
2016GE2 O C H 2016-04-03.34817 1.000E-05 14:03:51.230 1.500E-01 0.500 F 0.089 0.312 -18° 47' 11.60" 1.000E-01 0.500 F 0.077 -0.824 o 691 1.78 Yes No
2016FF15 O C H 2016-04-03.42270 1.000E-05 15:11:57.060 1.500E-01 0.500 F 0.146 -0.681 -04° 32' 52.70" 1.000E-01 0.500 F 0.160 -0.096 21.2 V 0.70 -0.19 o 691 1.38 Yes Yes
2016FF15 O C H 2016-04-03.42642 1.000E-05 15:11:56.620 1.500E-01 0.500 F 0.146 -0.450 -04° 32' 51.50" 1.000E-01 0.500 F 0.160 -0.290 20.9 V 0.70 -0.49 o 691 1.07 Yes Yes
2016FF15 O C H 2016-04-03.43011 1.000E-05 15:11:56.240 1.500E-01 0.500 F 0.146 0.622 -04° 32' 49.80" 1.000E-01 0.500 F 0.160 0.026 21.1 V 0.70 -0.29 o 691 1.25 Yes Yes
2005GR33 O C H 2016-04-03.48528 1.000E-05 17:10:21.600 1.500E-01 0.500 F 0.155 0.042 +09° 38' 03.50" 1.000E-01 0.500 F 0.193 -0.151 o 691 0.32 Yes No
2005GR33 O C H 2016-04-03.48897 1.000E-05 17:10:21.640 1.500E-01 0.500 F 0.155 0.329 +09° 37' 46.00" 1.000E-01 0.500 F 0.193 -0.967 o 691 2.08 Yes No
2005GR33 O C H 2016-04-03.49267 1.000E-05 17:10:21.670 1.500E-01 0.500 F 0.155 0.470 +09° 37' 30.00" 1.000E-01 0.500 F 0.193 -0.217 o 691 1.05 Yes No
1997XR2 O C H 2016-04-04.13448 1.000E-05 09:19:23.090 1.500E-01 0.500 F 0.047 -0.219 -08° 43' 39.20" 1.000E-01 0.500 F 0.054 0.092 20.7 V 0.70 -0.05 o 691 0.48 Yes Yes
1997XR2 O C H 2016-04-04.13766 1.000E-05 09:19:23.020 1.500E-01 0.500 F 0.047 0.093 -08° 43' 35.90" 1.000E-01 0.500 F 0.054 -0.743 20.7 V 0.70 -0.05 o 691 1.50 Yes Yes
1997XR2 O C H 2016-04-04.14084 1.000E-05 09:19:22.890 1.500E-01 0.500 F 0.047 -0.483 -08° 43' 31.50" 1.000E-01 0.500 F 0.054 -0.479 21.1 V 0.70 0.35 o 691 1.36 Yes Yes
2016FC15 O C H 2016-04-04.14437 1.000E-05 09:18:01.040 1.500E-01 0.500 F 0.070 -1.306 -03° 28' 03.30" 1.000E-01 0.500 F 0.033 0.570 21.0 V 0.70 -0.05 o 691 2.87 Yes Yes
2016FC15 O C H 2016-04-04.14731 1.000E-05 09:18:01.790 1.500E-01 0.500 F 0.070 0.609 -03° 28' 01.70" 1.000E-01 0.500 F 0.033 0.693 21.1 V 0.70 0.05 o 691 1.86 Yes Yes
2015NS13 O C H 2016-04-04.15498 1.000E-05 10:29:56.170 1.500E-01 0.500 F 0.130 4.251 -22° 27' 37.50" 1.000E-01 0.500 F -0.083 2.752 19.6 V 0.70 -2.03 o 691 10.07 No No
2015NS13 O C H 2016-04-04.16365 1.000E-05 10:29:55.370 1.500E-01 0.500 F 0.130 -0.927 -22° 27' 32.50" 1.000E-01 0.500 F -0.083 0.414 21.6 V 0.70 -0.04 o 691 2.04 Yes Yes
2016FT3 O C H 2016-04-04.16785 1.000E-05 10:28:17.870 1.500E-01 0.500 F 0.191 0.064 -16° 23' 49.50" 1.000E-01 0.500 F -0.123 -0.503 o 691 1.03 Yes No
2016FT3 O C H 2016-04-04.17421 1.000E-05 10:28:17.980 1.500E-01 0.500 F 0.191 0.266 -16° 23' 36.60" 1.000E-01 0.500 F -0.123 -0.424 o 691 1.01 Yes No
2016GJ134 O C H 2016-04-04.21346 1.000E-05 10:44:05.090 1.500E-01 0.500 F 0.215 0.995 +08° 35' 56.70" 1.000E-01 0.500 F 0.306 -1.086 21.5 V 0.70 0.12 o 691 3.14 Yes Yes
2016GJ134 O C H 2016-04-04.21692 1.000E-05 10:44:05.850 1.500E-01 0.500 F 0.215 0.323 +08° 35' 50.50" 1.000E-01 0.500 F 0.306 -0.721 21.5 V 0.70 0.12 o 691 1.66 Yes Yes
2016GJ134 O C H 2016-04-04.22038 1.000E-05 10:44:06.590 1.500E-01 0.500 F 0.215 -0.640 +08° 35' 44.60" 1.000E-01 0.500 F 0.306 -0.055 21.3 V 0.70 -0.08 o 691 1.37 Yes Yes
2016FV13 O C H 2016-04-04.31438 1.000E-05 11:10:28.490 1.500E-01 0.500 F 0.168 0.289 -13° 38' 39.00" 1.000E-01 0.500 F -0.011 0.319 20.5 V 0.70 0.20 o 691 0.86 Yes Yes
2016FV13 O C H 2016-04-04.31738 1.000E-05 11:10:27.530 1.500E-01 0.500 F 0.168 -0.257 -13° 38' 37.20" 1.000E-01 0.500 F -0.011 0.334 20.5 V 0.70 0.20 o 691 0.84 Yes Yes
2016FV13 O C H 2016-04-04.32038 1.000E-05 11:10:26.640 1.500E-01 0.500 F 0.168 0.199 -13° 38' 35.90" 1.000E-01 0.500 F -0.011 -0.167 20.5 V 0.70 0.20 o 691 0.52 Yes Yes
2016GL134 O C H 2016-04-04.32453 1.000E-05 12:02:27.010 1.500E-01 0.500 F 0.104 0.405 +16° 21' 17.50" 1.000E-01 0.500 F 0.290 -0.994 22.0 V 0.70 0.50 o 691 2.24 Yes Yes
2016GL134 O C H 2016-04-04.32795 1.000E-05 12:02:27.880 1.500E-01 0.500 F 0.104 0.266 +16° 21' 09.60" 1.000E-01 0.500 F 0.290 -0.357 22.0 V 0.70 0.50 o 691 0.93 Yes Yes
2016GL134 O C H 2016-04-04.33136 1.000E-05 12:02:28.720 1.500E-01 0.500 F 0.104 -0.273 +16° 21' 02.60" 1.000E-01 0.500 F 0.290 1.161 21.2 V 0.70 -0.30 o 691 2.48 Yes Yes
2015XR128 O C H 2016-04-05.15437 1.000E-05 07:30:30.860 1.500E-01 0.500 F -0.073 -1.380 -03° 21' 54.90" 1.000E-01 0.500 F 0.098 -0.371 o 691 2.86 Yes No
2015XR128 O C H 2016-04-05.15755 1.000E-05 07:30:31.580 1.500E-01 0.500 F -0.073 0.948 -03° 21' 56.70" 1.000E-01 0.500 F 0.098 -0.874 o 691 2.59 Yes No
2000DM1 O C 2016-04-05.16128 1.000E-05 08:42:42.340 1.500E-01 0.500 F 0.088 -0.348 +02° 56' 32.80" 1.000E-01 0.500 F 0.128 -0.028 o 691 0.70 Yes No
2000DM1 O C 2016-04-05.16353 1.000E-05 08:42:41.980 1.500E-01 0.500 F 0.088 -0.291 +02° 56' 30.40" 1.000E-01 0.500 F 0.128 0.027 o 691 0.59 Yes No
2000DM1 O C 2016-04-05.16579 1.000E-05 08:42:41.610 1.500E-01 0.500 F 0.088 -0.360 +02° 56' 27.70" 1.000E-01 0.500 F 0.128 -0.207 o 691 0.84 Yes No
2000DP107 O C 2016-04-05.20913 1.000E-05 09:49:24.930 1.500E-01 0.500 F 0.100 -0.346 +12° 01' 01.50" 1.000E-01 0.500 F 0.283 -0.261 o 691 0.87 Yes No
2000DP107 O C 2016-04-05.21115 1.000E-05 09:49:24.680 1.500E-01 0.500 F 0.100 -0.201 +12° 01' 00.80" 1.000E-01 0.500 F 0.283 -0.105 o 691 0.45 Yes No

[1-200] [201-400] [401-600] [601-800] [801-1000] [1001-1200] [1201-1400] [1401-1600] [1601-1800] [1801-2000] [2001-2200] [2201-2400] [2401-2600] [2601-2800] [2801-3000] [3001-3200] [3201-3400] [3401-3600] [3601-3800] [3801-4000] [4001-4200] [4201-4400] [4401-4600] [4601-4800] [4801-5000] [5001-5200] [5201-5400] [5401-5600] [5601-5800] [5801-6000] [6001-6200] [6201-6400] [6401-6600] [6601-6800] [6801-7000] [7001-7200] [7201-7400] [7401-7600] [7601-7800] [7801-8000] [8001-8200] [8201-8400] [8401-8600] [8601-8800] [8801-9000] [9001-9200] [9201-9400] [9401-9600] [9601-9800] [9801-10000] [10001-10200] [10201-10400] [10401-10600] [10601-10800] [10801-11000] [11001-11200] [11201-11400] [11401-11600] [11601-11800] [11801-12000] [12001-12200] [12201-12400] [12401-12600] [12601-12800] [12801-13000] [13001-13200] [13201-13400] [13401-13600] [13601-13800] [13801-14000] [14001-14200] [14201-14400] [14401-14600] [14601-14800] [14801-15000] [15001-15200] [15201-15400] [15401-15600] [15601-15800] [15801-16000] [16001-16200] [16201-16400] [16401-16600] [16601-16800] [16801-17000] [17001-17200] [17201-17400] [17401-17600] [17601-17800] [17801-18000] [18001-18200] [18201-18400] [18401-18600] [18601-18800] [18801-19000] [19001-19200] [19201-19400] [19401-19600] [19601-19800] [19801-20000] [20001-20200] [20201-20400] [20401-20600] [20601-20800] [20801-21000] [21001-21200] [21201-21400] [21401-21600] [21601-21800] [21801-22000] [22001-22200] [22201-22400] [22401-22600] [22601-22800] [22801-23000] [23001-23200] [23201-23400] [23401-23600] [23601-23800] [23801-24000] [24001-24200] [24201-24400] [24401-24600] [24601-24800] [24801-25000] [25001-25200] [25201-25400] [25401-25600] [25601-25800] [25801-26000] [26001-26200] [26201-26400] [26401-26600] [26601-26800] [26801-27000] [27001-27200] [27201-27400] [27401-27600] [27601-27800] [27801-28000] [28001-28200] [28201-28400] [28401-28600] [28601-28800] [28801-29000] [29001-29200] [29201-29400] [29401-29600] [29601-29800] [29801-30000] [30001-30200] [30201-30400] [30401-30600] [30601-30800] [30801-31000] [31001-31200] [31201-31400] [31401-31600] [31601-31800] [31801-32000] [32001-32200] [32201-32400] [32401-32600] [32601-32800] [32801-33000] [33001-33200] [33201-33400] [33401-33600] [33601-33800] [33801-34000] [34001-34200] [34201-34400] [34401-34600] [34601-34800] [34801-35000] [35001-35200] [35201-35400] [35401-35600] [35601-35800] [35801-36000] [36001-36200] [36201-36400] [36401-36600] [36601-36800] [36801-37000] [37001-37200] [37201-37400] [37401-37600] [37601-37800] [37801-38000] [38001-38200] [38201-38400] [38401-38600] [38601-38800] [38801-39000] [39001-39200] [39201-39400] [39401-39600] [39601-39800] [39801-40000] [40001-40200] [40201-40400] [40401-40600] [40601-40800] [40801-41000] [41001-41200] [41201-41400] [41401-41600] [41601-41800] [41801-42000] [42001-42200] [42201-42400] [42401-42600] [42601-42800] [42801-43000] [43001-43200] [43201-43400] [43401-43600] [43601-43800] [43801-44000] [44001-44200] [44201-44400] [44401-44600] [44601-44800] [44801-45000] [45001-45200] [45201-45400] [45401-45600] [45601-45800] [45801-46000] [46001-46200] [46201-46400] [46401-46600] [46601-46800] [46801-47000] [47001-47200] [47201-47400] [47401-47600] [47601-47800] [47801-48000] [48001-48200] [48201-48400] [48401-48600] [48601-48800] [48801-49000] [49001-49200] [49201-49400] [49401-49600] [49601-49800] [49801-50000] [50001-50200] [50201-50400] [50401-50600] [50601-50741]